Time;durP1;ratioP1;P1;durP2;ratioP2;P2;SDS_P1;SDS_P2;PMS_P1;PMS_P2;Temp;Humidity;BMP_temperature;BMP_pressure;BME280_temperature;BME280_humidity;BME280_pressure;Samples;Min_cycle;Max_cycle;Signal;HPM_P1;HPM_P2
2021/11/18 00:00:30;;;;;;;10.43;1.92;;;;;;;7.26;70.05;101204.84;4986272;28;20043;-46
2021/11/18 00:02:56;;;;;;;10.82;2.15;;;;;;;7.23;70.82;101208.19;4981389;28;20061;-48
2021/11/18 00:05:24;;;;;;;14.65;2.40;;;;;;;7.20;71.44;101205.53;4990542;28;21192;-43
2021/11/18 00:07:53;;;;;;;12.50;1.95;;;;;;;7.15;70.60;101205.38;4987076;28;20058;-46
2021/11/18 00:10:25;;;;;;;15.77;3.90;;;;;;;7.14;71.74;101200.19;4988712;28;20458;-47
2021/11/18 00:12:52;;;;;;;7.75;1.40;;;;;;;7.11;70.20;101203.56;4988195;28;20065;-43
2021/11/18 00:15:20;;;;;;;13.07;1.63;;;;;;;7.10;70.25;101206.97;4989384;28;20046;-45
2021/11/18 00:17:47;;;;;;;8.27;2.00;;;;;;;7.06;70.32;101205.13;4985700;28;20050;-46
2021/11/18 00:20:15;;;;;;;9.98;2.00;;;;;;;7.05;72.05;101213.66;4989193;28;20047;-41
2021/11/18 00:22:43;;;;;;;11.93;1.67;;;;;;;7.05;70.83;101213.66;4988343;28;20055;-46
2021/11/18 00:25:12;;;;;;;14.13;2.00;;;;;;;7.04;71.19;101217.06;4986930;28;20042;-45
2021/11/18 00:27:39;;;;;;;13.27;2.08;;;;;;;7.05;71.51;101219.69;4983041;28;20054;-42
2021/11/18 00:30:09;;;;;;;6.80;1.48;;;;;;;7.06;70.57;101215.44;4986467;28;20054;-45
2021/11/18 00:32:42;;;;;;;9.90;1.73;;;;;;;7.03;70.96;101211.03;4987429;28;20629;-41
2021/11/18 00:35:14;;;;;;;7.90;1.65;;;;;;;7.07;70.97;101215.44;4990465;28;20050;-46
2021/11/18 00:37:42;;;;;;;7.43;1.55;;;;;;;7.07;71.60;101228.31;4982660;28;20557;-47
2021/11/18 00:40:10;;;;;;;11.73;1.65;;;;;;;7.07;70.38;101227.47;4989578;28;20060;-44
2021/11/18 00:42:37;;;;;;;5.90;1.48;;;;;;;7.08;71.33;101234.38;4984417;28;20058;-46
2021/11/18 00:45:05;;;;;;;6.15;1.70;;;;;;;7.09;71.24;101230.97;4988872;28;20057;-46
2021/11/18 00:47:32;;;;;;;10.25;1.50;;;;;;;7.10;70.34;101232.72;4987576;28;20062;-43
2021/11/18 00:49:59;;;;;;;11.02;1.77;;;;;;;7.08;71.26;101234.38;4987411;28;20046;-44
2021/11/18 00:52:25;;;;;;;10.63;1.52;;;;;;;7.06;71.47;101236.03;4990436;28;20038;-44
2021/11/18 00:54:52;;;;;;;12.57;1.63;;;;;;;7.05;71.03;101235.16;4987818;28;20100;-47
2021/11/18 00:57:20;;;;;;;12.98;1.45;;;;;;;7.06;71.64;101236.03;4990912;28;20054;-47
2021/11/18 00:59:46;;;;;;;9.20;1.70;;;;;;;7.06;71.46;101225.72;4988066;28;20046;-47
2021/11/18 01:02:14;;;;;;;10.25;1.50;;;;;;;7.09;71.23;101222.38;4990406;28;20399;-43
2021/11/18 01:04:43;;;;;;;5.55;1.30;;;;;;;7.11;71.05;101224.16;4986269;28;20054;-48
2021/11/18 01:07:10;;;;;;;8.90;1.63;;;;;;;7.13;70.82;101222.50;4992640;28;20056;-48
2021/11/18 01:09:38;;;;;;;11.02;1.90;;;;;;;7.15;72.22;101218.28;4983824;28;20132;-43
2021/11/18 01:12:07;;;;;;;12.13;1.73;;;;;;;7.17;71.04;101219.19;4986620;28;20046;-46
2021/11/18 01:14:34;;;;;;;6.15;0.90;;;;;;;7.19;71.63;101211.50;4985226;28;20113;-47
2021/11/18 01:17:02;;;;;;;6.53;1.48;;;;;;;7.21;72.06;101204.69;4985027;28;20050;-42
2021/11/18 01:19:31;;;;;;;7.55;1.23;;;;;;;7.20;71.90;101205.53;4985956;28;20050;-43
2021/11/18 01:21:59;;;;;;;9.10;2.05;;;;;;;7.21;70.78;101199.53;4985788;28;20058;-43
2021/11/18 01:24:27;;;;;;;6.97;1.20;;;;;;;7.20;71.25;101203.81;4988127;28;20054;-46
2021/11/18 01:26:54;;;;;;;11.43;1.50;;;;;;;7.24;71.65;101206.50;4983002;28;20100;-41
2021/11/18 01:29:20;;;;;;;11.05;1.50;;;;;;;7.25;71.58;101209.13;4984341;28;20043;-42
2021/11/18 01:31:47;;;;;;;11.40;1.98;;;;;;;7.30;70.36;101214.41;4989283;28;20179;-48
2021/11/18 01:34:14;;;;;;;6.22;1.38;;;;;;;7.34;71.13;101205.94;4989011;28;20046;-45
2021/11/18 01:36:41;;;;;;;12.00;1.38;;;;;;;7.37;70.96;101197.41;4986934;28;20054;-42
2021/11/18 01:39:08;;;;;;;8.30;1.38;;;;;;;7.40;71.10;101211.25;4986686;28;20108;-44
2021/11/18 01:41:37;;;;;;;8.77;1.40;;;;;;;7.43;71.62;101220.81;4989936;28;20054;-47
2021/11/18 01:44:13;;;;;;;12.35;1.45;;;;;;;7.45;70.87;101222.59;4986647;28;20058;-47
2021/11/18 01:46:41;;;;;;;;;;;;;;;7.40;71.84;101224.13;4984859;28;20505;-45
2021/11/18 01:49:10;;;;;;;9.23;1.08;;;;;;;7.51;70.27;101233.91;4990324;28;19921;-45
2021/11/18 01:51:43;;;;;;;12.00;1.65;;;;;;;7.55;70.63;101241.78;4985137;28;20105;-42
2021/11/18 01:54:12;;;;;;;8.77;1.38;;;;;;;7.59;71.64;101232.41;4990215;28;20050;-48
2021/11/18 01:56:39;;;;;;;5.82;1.63;;;;;;;7.62;70.79;101222.19;4987482;28;20093;-42
2021/11/18 01:59:17;;;;;;;8.98;1.27;;;;;;;7.63;70.79;101229.09;4986286;28;20053;-40
2021/11/18 02:01:47;;;;;;;9.13;1.35;;;;;;;7.67;70.63;101236.09;4991901;28;20050;-45
2021/11/18 02:04:19;;;;;;;10.00;1.20;;;;;;;7.71;70.79;101240.50;4986568;28;20046;-47
2021/11/18 02:07:02;;;;;;;11.73;1.73;;;;;;;7.72;70.96;101229.38;4989270;28;20050;-44
2021/11/18 02:09:36;;;;;;;10.77;1.10;;;;;;;7.75;71.12;101233.75;4983082;28;20054;-44
2021/11/18 02:12:09;;;;;;;9.45;0.90;;;;;;;7.78;71.10;101222.63;4973304;28;20557;-46
2021/11/18 02:14:36;;;;;;;6.68;1.48;;;;;;;7.80;70.17;101215.81;4985056;28;20061;-47
2021/11/18 02:17:06;;;;;;;8.95;0.98;;;;;;;7.85;71.21;101221.97;4984994;28;20124;-47
2021/11/18 02:19:38;;;;;;;6.68;0.93;;;;;;;7.86;69.99;101217.69;4987258;28;20050;-44
2021/11/18 02:22:05;;;;;;;11.27;2.38;;;;;;;7.88;70.34;101213.44;4985770;28;20101;-45
2021/11/18 02:24:41;;;;;;;10.48;1.15;;;;;;;7.91;70.55;101216.97;4986423;28;20641;-47
2021/11/18 02:27:10;;;;;;;8.02;2.70;;;;;;;7.92;70.68;101211.00;4989555;28;20477;-45
2021/11/18 02:29:38;;;;;;;7.30;1.10;;;;;;;7.96;71.12;101206.78;4984530;28;20046;-46
2021/11/18 02:32:08;;;;;;;4.47;1.00;;;;;;;7.98;70.28;101208.56;4988915;28;20526;-43
2021/11/18 02:34:58;;;;;;;9.45;1.35;;;;;;;7.96;70.80;101217.09;4984506;28;20057;-46
2021/11/18 02:37:25;;;;;;;;;;;;;;;7.93;70.99;101212.72;4987785;28;20450;-45
2021/11/18 02:39:52;;;;;;;6.30;1.00;;;;;;;8.03;70.01;101212.97;4983587;28;19933;-44
2021/11/18 02:42:20;;;;;;;6.85;1.02;;;;;;;8.04;69.59;101205.25;4987277;28;20100;-43
2021/11/18 02:44:47;;;;;;;5.05;1.10;;;;;;;8.02;69.99;101211.22;4983971;28;20549;-43
2021/11/18 02:47:14;;;;;;;9.45;1.13;;;;;;;8.03;70.44;101210.38;4987637;28;20046;-46
2021/11/18 02:49:45;;;;;;;5.25;0.98;;;;;;;8.00;70.38;101207.75;4982936;28;20049;-45
2021/11/18 02:52:14;;;;;;;9.80;1.40;;;;;;;7.98;70.87;101213.72;4984934;28;20046;-45
2021/11/18 02:54:41;;;;;;;6.13;1.08;;;;;;;7.96;70.69;101209.34;4984577;28;20533;-43
2021/11/18 02:57:08;;;;;;;10.50;1.23;;;;;;;7.94;69.95;101214.47;4983328;28;20177;-45
2021/11/18 02:59:36;;;;;;;5.10;2.42;;;;;;;7.96;69.69;101207.66;4984277;28;20431;-46
2021/11/18 03:02:07;;;;;;;8.68;1.02;;;;;;;7.95;70.91;101200.75;4986708;28;20069;-46
2021/11/18 03:04:35;;;;;;;5.55;1.30;;;;;;;7.95;70.64;101200.75;4986200;28;20048;-45
2021/11/18 03:07:02;;;;;;;11.85;1.45;;;;;;;7.96;70.05;101202.50;4980621;28;20043;-44
2021/11/18 03:09:30;;;;;;;10.93;1.85;;;;;;;7.98;69.67;101205.13;4981626;28;20050;-49
2021/11/18 03:11:58;;;;;;;9.88;1.40;;;;;;;7.98;69.96;101198.22;4984440;28;20110;-44
2021/11/18 03:14:27;;;;;;;7.20;1.13;;;;;;;8.01;70.06;101199.16;4985184;28;20077;-44
2021/11/18 03:16:54;;;;;;;9.25;1.40;;;;;;;8.03;71.00;101200.06;4984309;28;20050;-46
2021/11/18 03:19:21;;;;;;;11.40;1.10;;;;;;;8.05;70.17;101193.25;4984257;28;20046;-45
2021/11/18 03:21:48;;;;;;;8.38;1.02;;;;;;;8.06;69.82;101198.44;4985875;28;20046;-46
2021/11/18 03:24:16;;;;;;;11.52;1.33;;;;;;;8.07;70.74;101184.72;4983411;28;20433;-46
2021/11/18 03:26:43;;;;;;;6.95;1.08;;;;;;;8.09;70.15;101166.69;4981944;28;20132;-48
2021/11/18 03:29:10;;;;;;;7.22;1.15;;;;;;;8.09;70.65;101167.56;4981208;28;20057;-42
2021/11/18 03:31:37;;;;;;;11.77;1.45;;;;;;;8.08;70.18;101180.44;4980449;28;20142;-43
2021/11/18 03:34:08;;;;;;;10.25;1.17;;;;;;;8.10;69.94;101189.06;4982552;28;20626;-43
2021/11/18 03:36:36;;;;;;;9.20;1.42;;;;;;;8.13;70.65;101183.09;4984884;28;20047;-43
2021/11/18 03:39:06;;;;;;;8.38;1.35;;;;;;;8.16;70.29;101184.06;4965238;28;20058;-50
2021/11/18 03:41:37;;;;;;;10.40;1.55;;;;;;;8.16;70.23;101181.50;4987064;28;20116;-42
2021/11/18 03:44:06;;;;;;;9.05;1.45;;;;;;;8.16;70.59;101184.06;4989942;28;20069;-47
2021/11/18 03:49:12;;;;;;;10.57;1.65;;;;;;;8.13;69.46;101186.56;5015609;27;20414;-47
2021/11/18 03:51:40;;;;;;;8.75;2.05;;;;;;;8.09;69.57;101183.06;4982514;28;20050;-44
2021/11/18 03:54:09;;;;;;;8.05;1.65;;;;;;;8.06;70.06;101188.13;4980667;28;20839;-44
2021/11/18 03:56:40;;;;;;;9.95;1.70;;;;;;;8.02;69.77;101190.56;4982571;28;20046;-42
2021/11/18 03:59:13;;;;;;;9.98;2.22;;;;;;;7.97;70.52;101188.75;4981716;28;20097;-46
2021/11/18 04:01:41;;;;;;;13.88;2.65;;;;;;;7.94;69.26;101186.09;4979415;28;20109;-44
2021/11/18 04:04:11;;;;;;;7.20;1.55;;;;;;;7.90;69.55;101191.16;4983632;28;20051;-44
2021/11/18 04:06:38;;;;;;;11.23;1.83;;;;;;;7.88;69.86;101183.38;4984738;28;20058;-45
2021/11/18 04:09:06;;;;;;;8.73;1.90;;;;;;;7.84;69.84;101171.22;4980969;28;20098;-42
2021/11/18 04:11:34;;;;;;;9.27;1.80;;;;;;;7.80;69.79;101174.56;4996490;28;20469;-44
2021/11/18 04:14:01;;;;;;;15.70;1.67;;;;;;;7.78;69.97;101181.34;4986300;28;20062;-48
2021/11/18 04:16:28;;;;;;;7.70;1.13;;;;;;;7.75;71.16;101184.72;4983675;28;20046;-49
2021/11/18 04:18:55;;;;;;;8.60;1.67;;;;;;;7.74;69.74;101184.69;4982101;28;20050;-45
2021/11/18 04:21:22;;;;;;;7.70;1.80;;;;;;;7.69;69.85;101185.44;4982499;28;20105;-42
2021/11/18 04:23:49;;;;;;;12.32;2.08;;;;;;;7.66;70.49;101171.56;4980542;28;20489;-44
2021/11/18 04:26:16;;;;;;;6.13;1.20;;;;;;;7.65;71.09;101173.28;4984480;28;20050;-43
2021/11/18 04:28:42;;;;;;;7.05;1.20;;;;;;;7.64;70.41;101161.25;4980616;28;20106;-44
2021/11/18 04:31:14;;;;;;;10.15;1.52;;;;;;;7.64;70.35;101148.34;4983188;28;20105;-43
2021/11/18 04:33:41;;;;;;;7.45;1.85;;;;;;;7.60;70.78;101136.19;4983906;28;20047;-44
2021/11/18 04:36:10;;;;;;;7.22;1.13;;;;;;;7.59;71.45;101139.59;4998414;28;20187;-45
2021/11/18 04:38:38;;;;;;;9.48;1.38;;;;;;;7.62;70.88;101139.69;4995158;28;20450;-45
2021/11/18 04:41:06;;;;;;;8.75;1.77;;;;;;;7.60;70.57;101136.19;4998428;28;20435;-45
2021/11/18 04:43:34;;;;;;;10.43;1.23;;;;;;;7.60;70.45;101141.34;4984820;28;20042;-40
2021/11/18 04:46:02;;;;;;;4.93;1.67;;;;;;;7.57;70.72;101136.13;4983721;28;20050;-44
2021/11/18 04:48:29;;;;;;;7.82;1.63;;;;;;;7.53;71.87;101129.13;4982927;28;20046;-42
2021/11/18 04:50:56;;;;;;;13.00;1.88;;;;;;;7.48;71.05;101130.69;4983595;28;20050;-42
2021/11/18 04:53:26;;;;;;;12.00;1.92;;;;;;;7.45;71.20;101142.69;4982472;28;20062;-41
2021/11/18 04:55:54;;;;;;;5.60;1.08;;;;;;;7.46;70.87;101138.38;4985272;28;20055;-46
2021/11/18 04:58:21;;;;;;;7.03;1.23;;;;;;;7.43;70.55;101146.91;4980132;28;20062;-41
2021/11/18 05:00:52;;;;;;;8.10;1.33;;;;;;;7.42;71.59;101137.44;4970046;28;20069;-44
2021/11/18 05:03:21;;;;;;;3.83;1.10;;;;;;;7.40;71.69;101133.06;4962389;28;20131;-65
2021/11/18 05:05:48;;;;;;;11.80;2.15;;;;;;;7.41;70.86;101127.06;4969212;28;20054;-44
2021/11/18 05:08:15;;;;;;;12.52;1.58;;;;;;;7.40;71.28;101123.63;4969212;28;20043;-45
2021/11/18 05:10:45;;;;;;;8.43;1.40;;;;;;;7.37;70.70;101118.41;4967575;28;20043;-42
2021/11/18 05:13:12;;;;;;;11.13;1.60;;;;;;;7.38;71.58;101130.44;4965747;28;20051;-44
2021/11/18 05:15:41;;;;;;;13.00;1.13;;;;;;;7.39;71.45;101137.34;4966977;28;20058;-44
2021/11/18 05:18:09;;;;;;;7.53;1.38;;;;;;;7.36;71.16;101147.56;4971595;28;20120;-45
2021/11/18 05:20:37;;;;;;;7.57;1.02;;;;;;;7.37;72.03;101148.44;4967613;28;20042;-47
2021/11/18 05:23:05;;;;;;;4.22;0.82;;;;;;;7.35;71.53;101153.56;4967868;28;20098;-46
2021/11/18 05:25:32;;;;;;;6.22;0.98;;;;;;;7.36;71.64;101155.28;4969325;28;20043;-42
2021/11/18 05:28:00;;;;;;;7.95;1.45;;;;;;;7.35;70.62;101148.41;4969741;28;20105;-41
2021/11/18 05:30:28;;;;;;;10.98;1.23;;;;;;;7.36;71.18;101163.03;4966611;28;20055;-46
2021/11/18 05:32:57;;;;;;;7.75;1.30;;;;;;;7.38;71.20;101165.66;4984655;28;20146;-43
2021/11/18 05:35:28;;;;;;;8.18;1.35;;;;;;;7.34;71.92;101167.28;4971894;28;20043;-46
2021/11/18 05:37:54;;;;;;;6.85;0.70;;;;;;;7.32;71.55;101162.06;4953105;28;20498;-45
2021/11/18 05:40:23;;;;;;;8.82;1.30;;;;;;;7.28;72.10;101156.78;4968757;28;20553;-44
2021/11/18 05:42:50;;;;;;;13.70;1.10;;;;;;;7.28;70.63;101154.19;4953306;28;20054;-45
2021/11/18 05:45:21;;;;;;;10.25;1.67;;;;;;;7.28;70.67;101156.78;4957342;28;20047;-46
2021/11/18 05:47:47;;;;;;;5.75;1.52;;;;;;;7.25;72.61;101164.41;4969593;28;20113;-45
2021/11/18 05:50:15;;;;;;;9.60;1.10;;;;;;;7.25;71.87;101164.41;4967393;28;20400;-44
2021/11/18 05:52:43;;;;;;;6.07;0.93;;;;;;;7.23;72.16;101171.25;4969830;28;20101;-47
2021/11/18 05:55:14;;;;;;;11.85;1.30;;;;;;;7.17;72.15;101167.63;4968657;28;20050;-46
2021/11/18 05:57:42;;;;;;;4.75;1.02;;;;;;;7.16;72.25;101158.16;4967597;28;20097;-44
2021/11/18 06:00:13;;;;;;;5.88;0.93;;;;;;;7.14;72.82;101154.69;4983278;28;20503;-42
2021/11/18 06:02:40;;;;;;;7.38;1.38;;;;;;;7.14;71.12;101157.28;4968489;28;20054;-43
2021/11/18 06:05:07;;;;;;;13.63;1.67;;;;;;;7.11;72.84;101143.41;4972930;28;20495;-46
2021/11/18 06:07:33;;;;;;;7.50;1.15;;;;;;;7.13;71.82;101159.81;4968163;28;20077;-44
2021/11/18 06:10:00;;;;;;;7.18;1.42;;;;;;;7.13;72.04;101160.66;4969864;28;20062;-47
2021/11/18 06:12:27;;;;;;;6.15;1.08;;;;;;;7.13;72.15;101164.94;4968041;28;20069;-48
2021/11/18 06:14:54;;;;;;;9.23;0.90;;;;;;;7.11;73.17;101170.06;4968342;28;20050;-47
2021/11/18 06:17:20;;;;;;;6.28;1.38;;;;;;;7.12;72.37;101169.22;4969257;28;20054;-44
2021/11/18 06:19:47;;;;;;;7.28;0.77;;;;;;;7.14;71.51;101185.63;4968474;28;20050;-47
2021/11/18 06:22:14;;;;;;;6.90;1.58;;;;;;;7.16;71.42;101176.22;4971233;28;20097;-45
2021/11/18 06:24:41;;;;;;;6.78;0.77;;;;;;;7.15;72.54;101184.78;4965584;28;20596;-47
2021/11/18 06:27:07;;;;;;;4.45;1.02;;;;;;;7.15;71.49;101195.09;4967302;28;20062;-47
2021/11/18 06:29:34;;;;;;;8.73;2.13;;;;;;;7.15;72.13;101189.03;4968749;28;20047;-44
2021/11/18 06:32:05;;;;;;;6.50;1.38;;;;;;;7.15;71.56;101195.09;4964810;28;20066;-47
2021/11/18 06:34:32;;;;;;;5.63;0.95;;;;;;;7.15;71.82;101204.50;4970537;28;20053;-46
2021/11/18 06:36:58;;;;;;;8.68;1.70;;;;;;;7.15;72.54;101201.94;4967904;28;20050;-45
2021/11/18 06:39:25;;;;;;;7.20;1.05;;;;;;;7.16;71.78;101212.28;4969938;28;20050;-45
2021/11/18 06:41:52;;;;;;;6.22;1.45;;;;;;;7.15;72.17;101220.84;4969804;28;20447;-44
2021/11/18 06:44:20;;;;;;;10.40;1.73;;;;;;;7.14;72.56;101219.09;4966685;28;20051;-43
2021/11/18 06:46:46;;;;;;;7.93;1.33;;;;;;;7.14;72.23;101213.94;4967495;28;20082;-46
2021/11/18 06:49:13;;;;;;;7.03;1.35;;;;;;;7.15;72.50;101220.84;4966736;28;20167;-43
2021/11/18 06:51:42;;;;;;;8.75;1.00;;;;;;;7.14;72.62;101213.94;4966992;28;20051;-47
2021/11/18 06:54:11;;;;;;;5.10;1.20;;;;;;;7.14;72.56;101216.53;4966401;28;20102;-44
2021/11/18 06:56:38;;;;;;;6.45;1.75;;;;;;;7.10;72.61;101217.28;4968536;28;20047;-40
2021/11/18 06:59:04;;;;;;;6.10;1.05;;;;;;;7.15;73.28;101215.69;4968936;28;20042;-45
2021/11/18 07:01:32;;;;;;;14.00;1.52;;;;;;;7.18;72.09;101220.94;4966990;28;20101;-44
2021/11/18 07:03:59;;;;;;;3.92;0.95;;;;;;;7.22;73.31;101236.50;4967285;28;20557;-50
2021/11/18 07:06:26;;;;;;;10.10;1.55;;;;;;;7.25;72.41;101236.56;4967470;28;20062;-43
2021/11/18 07:08:53;;;;;;;4.63;1.75;;;;;;;7.27;72.59;101243.56;4968106;28;20077;-43
2021/11/18 07:11:25;;;;;;;9.90;1.95;;;;;;;7.31;72.95;101241.94;4963639;28;20068;-40
2021/11/18 07:13:52;;;;;;;7.40;1.65;;;;;;;7.36;72.49;101235.19;4968637;28;20078;-44
2021/11/18 07:16:21;;;;;;;14.70;3.58;;;;;;;7.39;72.56;101236.97;4967551;28;20043;-44
2021/11/18 07:18:48;;;;;;;35.55;11.25;;;;;;;7.40;73.57;101236.19;4967680;28;20043;-45
2021/11/18 07:21:16;;;;;;;16.95;4.70;;;;;;;7.42;73.33;101237.97;4961684;28;20047;-43
2021/11/18 07:23:44;;;;;;;23.27;4.85;;;;;;;7.41;72.61;101246.53;4958109;28;20538;-46
2021/11/18 07:26:11;;;;;;;7.70;1.42;;;;;;;7.43;72.94;101236.28;4973996;28;20109;-43
2021/11/18 07:28:39;;;;;;;9.27;3.05;;;;;;;7.43;73.44;101231.13;4966699;28;20042;-48
2021/11/18 07:31:09;;;;;;;11.93;3.60;;;;;;;7.44;73.59;101238.88;4963902;28;20599;-47
2021/11/18 07:33:36;;;;;;;7.57;1.30;;;;;;;7.46;73.54;101242.38;4966511;28;20406;-49
2021/11/18 07:36:04;;;;;;;10.48;2.85;;;;;;;7.49;72.64;101240.72;4968120;28;20204;-48
2021/11/18 07:38:32;;;;;;;6.10;1.63;;;;;;;7.53;73.34;101243.44;4966567;28;20648;-45
2021/11/18 07:41:00;;;;;;;9.23;1.27;;;;;;;7.58;73.11;101247.03;4964079;28;20077;-46
2021/11/18 07:43:31;;;;;;;12.88;1.13;;;;;;;7.62;73.61;101252.25;4959747;28;20055;-43
2021/11/18 07:46:18;;;;;;;3.83;1.17;;;;;;;7.65;72.77;101248.06;4960502;28;20122;-47
2021/11/18 07:48:47;;;;;;;12.23;1.98;;;;;;;7.70;73.28;101246.50;4961945;28;20054;-47
2021/11/18 07:51:16;;;;;;;8.05;1.42;;;;;;;7.74;72.48;101247.47;4955637;28;20113;-46
2021/11/18 07:53:43;;;;;;;15.40;2.88;;;;;;;7.82;72.10;101239.94;4954113;28;20078;-44
2021/11/18 07:56:12;;;;;;;8.70;2.08;;;;;;;7.90;72.17;101247.91;4960037;28;20046;-45
2021/11/18 07:58:39;;;;;;;9.93;2.63;;;;;;;7.95;72.27;101242.03;4959195;28;20121;-46
2021/11/18 08:01:08;;;;;;;16.08;3.92;;;;;;;8.02;72.19;101242.19;4961728;28;20051;-51
2021/11/18 08:03:35;;;;;;;8.73;1.92;;;;;;;8.09;72.77;101249.25;4974845;28;20125;-49
2021/11/18 08:06:05;;;;;;;7.60;1.30;;;;;;;8.15;72.96;101241.69;4958211;28;20103;-47
2021/11/18 08:08:32;;;;;;;10.75;1.73;;;;;;;8.34;72.53;101242.16;4957246;28;20054;-47
2021/11/18 08:10:59;;;;;;;9.68;2.72;;;;;;;8.67;72.17;101249.03;4959466;28;20047;-50
2021/11/18 08:13:26;;;;;;;10.60;2.78;;;;;;;9.04;71.93;101248.16;4958085;28;20446;-45
2021/11/18 08:15:53;;;;;;;9.48;2.85;;;;;;;9.49;71.33;101256.94;4962258;28;20047;-46
2021/11/18 08:18:20;;;;;;;10.15;2.55;;;;;;;10.11;71.40;101252.09;4962406;28;20129;-45
2021/11/18 08:20:46;;;;;;;12.25;1.90;;;;;;;10.64;69.46;101242.69;4959942;28;20130;-45
2021/11/18 08:23:13;;;;;;;9.48;3.60;;;;;;;10.98;67.70;101245.75;4956084;28;20047;-47
2021/11/18 08:25:40;;;;;;;19.67;5.18;;;;;;;11.22;68.23;101247.00;4958470;28;20047;-43
2021/11/18 08:28:08;;;;;;;9.73;2.40;;;;;;;11.53;68.26;101252.59;4959307;28;20039;-43
2021/11/18 08:30:35;;;;;;;5.40;2.05;;;;;;;11.73;67.07;101244.19;4961249;28;20125;-46
2021/11/18 08:33:05;;;;;;;9.52;2.15;;;;;;;11.95;66.60;101255.66;4959788;28;20062;-46
2021/11/18 08:35:37;;;;;;;17.23;5.30;;;;;;;12.25;65.88;101253.41;4962999;28;20137;-43
2021/11/18 08:38:08;;;;;;;5.30;1.25;;;;;;;12.60;65.91;101257.19;4965686;28;21780;-48
2021/11/18 08:40:37;;;;;;;6.07;1.40;;;;;;;12.91;64.89;101259.13;4972292;28;20054;-46
2021/11/18 08:43:05;;;;;;;5.85;1.83;;;;;;;13.22;64.50;101259.34;4967718;28;20419;-45
2021/11/18 08:45:33;;;;;;;10.23;2.50;;;;;;;13.43;64.47;101263.78;4966274;28;20051;-47
2021/11/18 08:48:01;;;;;;;6.10;2.03;;;;;;;13.65;64.08;101265.66;4969744;28;20055;-42
2021/11/18 08:50:27;;;;;;;7.82;2.22;;;;;;;14.01;64.20;101269.22;4968967;28;20050;-46
2021/11/18 08:52:54;;;;;;;15.27;3.65;;;;;;;14.29;62.92;101271.91;4959580;28;20057;-45
2021/11/18 08:55:26;;;;;;;6.88;2.33;;;;;;;14.34;62.26;101264.97;4963484;28;20560;-45
2021/11/18 08:57:53;;;;;;;7.75;1.50;;;;;;;14.35;62.03;101258.88;4966404;28;20051;-48
2021/11/18 09:00:34;;;;;;;7.90;1.42;;;;;;;14.08;61.49;101252.75;4965109;28;20046;-47
2021/11/18 09:03:01;;;;;;;12.15;2.85;;;;;;;13.74;61.65;101252.66;4957996;28;20506;-49
2021/11/18 09:05:30;;;;;;;6.53;1.15;;;;;;;13.39;62.83;101250.75;4962496;28;20300;-45
2021/11/18 09:07:59;;;;;;;9.32;1.80;;;;;;;13.14;62.98;101250.63;4959206;28;20457;-47
2021/11/18 09:10:27;;;;;;;5.35;1.17;;;;;;;12.85;63.00;101266.03;4961720;28;20061;-45
2021/11/18 09:12:53;;;;;;;6.57;1.65;;;;;;;12.58;63.58;101262.38;4964625;28;20062;-44
2021/11/18 09:15:23;;;;;;;5.18;1.35;;;;;;;12.40;64.81;101267.41;4970969;28;20042;-47
2021/11/18 09:17:50;;;;;;;6.65;1.33;;;;;;;12.15;65.20;101278.41;4964959;28;20058;-42
2021/11/18 09:20:20;;;;;;;8.07;1.10;;;;;;;12.01;65.67;101275.63;4971153;28;20094;-45
2021/11/18 09:22:48;;;;;;;2.60;0.88;;;;;;;11.86;65.22;101288.44;4968118;28;20047;-47
2021/11/18 09:25:16;;;;;;;5.78;1.27;;;;;;;11.71;65.44;101292.59;4954722;28;20057;-49
2021/11/18 09:27:47;;;;;;;8.63;1.52;;;;;;;11.57;65.87;101295.88;4968695;28;20043;-46
2021/11/18 09:30:22;;;;;;;12.73;2.03;;;;;;;11.47;66.24;101299.19;4966237;28;20050;-47
2021/11/18 09:32:49;;;;;;;8.00;1.67;;;;;;;11.44;66.30;101299.16;4968132;28;20113;-43
2021/11/18 09:35:19;;;;;;;10.90;2.47;;;;;;;11.42;67.36;101295.69;4969702;28;20081;-45
2021/11/18 09:37:46;;;;;;;7.93;1.60;;;;;;;11.37;66.68;101299.91;4964157;28;20394;-48
2021/11/18 09:40:18;;;;;;;9.00;1.85;;;;;;;11.35;66.87;101304.22;4961264;28;20055;-45
2021/11/18 09:43:17;;;;;;;3.65;1.73;;;;;;;11.22;67.02;101298.88;4967375;28;20059;-46
2021/11/18 09:45:53;;;;;;;4.47;0.93;;;;;;;11.22;67.01;101303.16;4977822;28;20054;-47
2021/11/18 09:48:37;;;;;;;5.22;1.52;;;;;;;11.18;68.03;101307.44;4965920;28;20482;-46
2021/11/18 09:51:19;;;;;;;6.85;1.85;;;;;;;11.13;67.24;101315.16;4968400;28;20054;-46
2021/11/18 09:54:12;;;;;;;6.97;1.25;;;;;;;11.12;67.28;101308.22;4966068;28;20113;-48
2021/11/18 09:56:56;;;;;;;4.30;1.65;;;;;;;11.18;68.38;101305.72;4977574;28;20151;-48
2021/11/18 09:59:57;;;;;;;8.65;2.85;;;;;;;11.15;67.62;101313.44;4980374;28;20039;-45
2021/11/18 10:02:53;;;;;;;10.05;2.00;;;;;;;11.15;68.20;101321.22;4964831;28;20046;-51
2021/11/18 10:05:28;;;;;;;8.93;3.25;;;;;;;11.19;68.33;101327.34;4966135;28;20380;-45
2021/11/18 10:08:00;;;;;;;10.20;3.08;;;;;;;11.21;68.41;101328.22;4961319;28;20055;-44
2021/11/18 10:10:36;;;;;;;9.13;3.83;;;;;;;11.22;68.14;101332.56;4962070;28;20059;-51
2021/11/18 10:13:38;;;;;;;9.02;3.28;;;;;;;11.21;69.45;101328.22;4962622;28;20046;-48
2021/11/18 10:16:15;;;;;;;8.73;2.67;;;;;;;11.23;68.64;101320.47;4950102;28;20059;-46
2021/11/18 10:18:46;;;;;;;5.47;2.10;;;;;;;11.23;68.74;101323.94;4972902;28;20482;-45
2021/11/18 10:21:18;;;;;;;6.00;1.42;;;;;;;11.25;69.43;101330.00;4965798;28;20047;-49
2021/11/18 10:23:50;;;;;;;5.88;2.30;;;;;;;11.25;69.35;101330.00;4962752;28;20062;-45
2021/11/18 10:26:23;;;;;;;5.15;2.00;;;;;;;11.28;69.52;101330.06;4964854;28;20047;-45
2021/11/18 10:29:13;;;;;;;11.32;3.67;;;;;;;11.36;70.86;101330.19;4983301;28;20738;-49
2021/11/18 10:32:09;;;;;;;5.45;1.75;;;;;;;11.66;70.43;101330.59;4967281;28;20137;-43
2021/11/18 10:35:07;;;;;;;5.63;2.05;;;;;;;11.91;69.81;101325.69;4963839;28;20093;-50
2021/11/18 10:37:39;;;;;;;6.47;1.85;;;;;;;12.05;68.67;101333.66;4966907;28;20049;-47
2021/11/18 10:40:26;;;;;;;3.92;1.33;;;;;;;12.13;69.43;101320.81;4963489;28;20049;-42
2021/11/18 10:43:15;;;;;;;10.00;2.03;;;;;;;12.21;68.42;101329.56;4963997;28;20043;-49
2021/11/18 10:45:46;;;;;;;4.93;1.67;;;;;;;12.30;68.58;101329.63;4965138;28;20055;-50
2021/11/18 10:48:22;;;;;;;4.60;1.58;;;;;;;12.27;68.00;101324.44;4966592;28;20473;-47
2021/11/18 10:50:55;;;;;;;6.05;1.33;;;;;;;12.21;68.93;101334.75;4968828;28;20618;-45
2021/11/18 10:53:29;;;;;;;9.77;1.83;;;;;;;12.16;68.07;101326.03;4983985;28;20062;-44
2021/11/18 10:56:07;;;;;;;9.18;2.92;;;;;;;12.06;68.87;101318.13;4962593;28;20054;-47
2021/11/18 10:58:36;;;;;;;21.80;4.30;;;;;;;12.04;68.72;101321.53;4965901;28;20529;-49
2021/11/18 11:01:34;;;;;;;18.55;5.22;;;;;;;12.01;69.52;101322.38;4967224;28;20039;-48
2021/11/18 11:04:06;;;;;;;19.55;4.65;;;;;;;12.02;69.62;101326.69;4966637;28;20097;-47
2021/11/18 11:06:50;;;;;;;21.60;5.97;;;;;;;12.02;69.57;101333.63;4962191;28;20675;-48
2021/11/18 11:09:31;;;;;;;20.17;6.10;;;;;;;12.04;69.01;101319.81;4967385;28;20055;-52
2021/11/18 11:12:08;;;;;;;31.52;10.60;;;;;;;12.12;68.97;101324.25;4967361;28;20042;-46
2021/11/18 11:15:15;;;;;;;16.83;6.53;;;;;;;12.19;69.20;101315.66;4966529;28;20058;-48
2021/11/18 11:17:58;;;;;;;11.73;4.05;;;;;;;12.26;69.56;101312.28;4954715;28;20656;-50
2021/11/18 11:21:05;;;;;;;17.95;5.80;;;;;;;12.33;69.17;101308.91;4963951;28;20039;-48
2021/11/18 11:24:01;;;;;;;18.38;5.03;;;;;;;12.48;70.24;101296.91;4956470;28;20117;-45
2021/11/18 11:27:07;;;;;;;9.38;3.78;;;;;;;12.67;69.08;101287.53;4966338;28;20095;-44
2021/11/18 11:29:46;;;;;;;8.00;3.67;;;;;;;12.78;69.28;101290.25;4967632;28;20034;-44
2021/11/18 11:32:37;;;;;;;6.65;3.38;;;;;;;12.76;68.07;101286.75;4964425;28;20046;-46
2021/11/18 11:35:16;;;;;;;8.00;3.15;;;;;;;12.74;68.28;101288.50;4969160;28;20046;-45
2021/11/18 11:38:08;;;;;;;7.47;2.53;;;;;;;12.67;68.49;101282.34;4965322;28;20051;-47
2021/11/18 11:41:03;;;;;;;5.43;2.60;;;;;;;12.65;68.33;101288.41;4966889;28;20043;-52
2021/11/18 11:43:39;;;;;;;6.43;2.90;;;;;;;12.60;69.46;101280.56;4950019;28;20441;-44
2021/11/18 11:46:45;;;;;;;4.13;1.40;;;;;;;12.55;69.07;101283.13;4963395;28;20046;-49
2021/11/18 11:49:27;;;;;;;5.43;2.00;;;;;;;12.56;69.85;101292.66;4966587;28;20055;-50